sensor_id;sensor_type;location;lat;lon;timestamp;temperature;humidity
78767;SHT31;68092;51.982;5.680;2023-02-28T00:02:26;4.8;55.9
78767;SHT31;68092;51.982;5.680;2023-02-28T00:04:56;4.8;56.0
78767;SHT31;68092;51.982;5.680;2023-02-28T00:07:28;4.8;56.4
78767;SHT31;68092;51.982;5.680;2023-02-28T00:09:59;4.8;56.2
78767;SHT31;68092;51.982;5.680;2023-02-28T00:12:29;4.8;56.3
78767;SHT31;68092;51.982;5.680;2023-02-28T00:15:01;4.8;55.9
78767;SHT31;68092;51.982;5.680;2023-02-28T00:17:36;4.9;56.1
78767;SHT31;68092;51.982;5.680;2023-02-28T00:20:09;4.9;56.6
78767;SHT31;68092;51.982;5.680;2023-02-28T00:22:41;4.9;56.4
78767;SHT31;68092;51.982;5.680;2023-02-28T00:25:13;4.9;56.0
78767;SHT31;68092;51.982;5.680;2023-02-28T00:27:43;4.9;56.6
78767;SHT31;68092;51.982;5.680;2023-02-28T00:30:18;5.0;56.3
78767;SHT31;68092;51.982;5.680;2023-02-28T00:32:48;5.0;56.2
78767;SHT31;68092;51.982;5.680;2023-02-28T00:35:21;5.0;56.6
78767;SHT31;68092;51.982;5.680;2023-02-28T00:37:53;5.0;56.9
78767;SHT31;68092;51.982;5.680;2023-02-28T00:40:24;5.0;56.3
78767;SHT31;68092;51.982;5.680;2023-02-28T00:42:54;5.0;56.2
78767;SHT31;68092;51.982;5.680;2023-02-28T00:45:24;5.1;57.2
78767;SHT31;68092;51.982;5.680;2023-02-28T00:47:56;5.1;56.2
78767;SHT31;68092;51.982;5.680;2023-02-28T00:50:28;5.1;57.0
78767;SHT31;68092;51.982;5.680;2023-02-28T00:52:58;5.1;56.7
78767;SHT31;68092;51.982;5.680;2023-02-28T00:55:27;5.1;56.5
78767;SHT31;68092;51.982;5.680;2023-02-28T00:57:57;5.2;57.0
78767;SHT31;68092;51.982;5.680;2023-02-28T01:00:26;5.2;56.5
78767;SHT31;68092;51.982;5.680;2023-02-28T01:02:56;5.2;56.6
78767;SHT31;68092;51.982;5.680;2023-02-28T01:05:27;5.3;55.7
78767;SHT31;68092;51.982;5.680;2023-02-28T01:07:57;5.3;56.1
78767;SHT31;68092;51.982;5.680;2023-02-28T01:10:28;5.3;56.2
78767;SHT31;68092;51.982;5.680;2023-02-28T01:13:01;5.3;56.0
78767;SHT31;68092;51.982;5.680;2023-02-28T01:15:31;5.4;55.7
78767;SHT31;68092;51.982;5.680;2023-02-28T01:18:01;5.4;56.2
78767;SHT31;68092;51.982;5.680;2023-02-28T01:20:31;5.4;55.8
78767;SHT31;68092;51.982;5.680;2023-02-28T01:23:02;5.5;56.1
78767;SHT31;68092;51.982;5.680;2023-02-28T01:25:34;5.5;55.8
78767;SHT31;68092;51.982;5.680;2023-02-28T01:28:07;5.5;55.5
78767;SHT31;68092;51.982;5.680;2023-02-28T01:30:37;5.5;55.7
78767;SHT31;68092;51.982;5.680;2023-02-28T01:33:07;5.5;56.0
78767;SHT31;68092;51.982;5.680;2023-02-28T01:35:36;5.5;55.7
78767;SHT31;68092;51.982;5.680;2023-02-28T01:38:07;5.6;55.8
78767;SHT31;68092;51.982;5.680;2023-02-28T01:40:37;5.6;56.0
78767;SHT31;68092;51.982;5.680;2023-02-28T01:43:19;5.6;55.8
78767;SHT31;68092;51.982;5.680;2023-02-28T01:45:51;5.6;55.8
78767;SHT31;68092;51.982;5.680;2023-02-28T01:48:25;5.6;55.4
78767;SHT31;68092;51.982;5.680;2023-02-28T01:51:00;5.7;55.9
78767;SHT31;68092;51.982;5.680;2023-02-28T01:53:35;5.7;55.8
78767;SHT31;68092;51.982;5.680;2023-02-28T01:56:12;5.7;55.7
78767;SHT31;68092;51.982;5.680;2023-02-28T01:58:49;5.7;55.8
78767;SHT31;68092;51.982;5.680;2023-02-28T02:01:21;5.7;55.4
78767;SHT31;68092;51.982;5.680;2023-02-28T02:03:54;5.8;55.6
78767;SHT31;68092;51.982;5.680;2023-02-28T02:06:27;5.8;55.5
78767;SHT31;68092;51.982;5.680;2023-02-28T02:09:00;5.8;55.3
78767;SHT31;68092;51.982;5.680;2023-02-28T02:11:30;5.8;55.1
78767;SHT31;68092;51.982;5.680;2023-02-28T02:14:58;5.9;54.7
78767;SHT31;68092;51.982;5.680;2023-02-28T02:17:35;5.9;54.9
78767;SHT31;68092;51.982;5.680;2023-02-28T02:20:41;5.9;54.9
78767;SHT31;68092;51.982;5.680;2023-02-28T02:23:37;6.0;54.7
78767;SHT31;68092;51.982;5.680;2023-02-28T02:26:36;6.0;54.9
78767;SHT31;68092;51.982;5.680;2023-02-28T02:35:13;6.0;54.5
78767;SHT31;68092;51.982;5.680;2023-02-28T02:37:50;6.1;54.6
78767;SHT31;68092;51.982;5.680;2023-02-28T02:40:25;6.1;54.4
78767;SHT31;68092;51.982;5.680;2023-02-28T02:43:01;6.1;54.3
78767;SHT31;68092;51.982;5.680;2023-02-28T02:45:39;6.1;54.2
78767;SHT31;68092;51.982;5.680;2023-02-28T02:48:13;6.1;54.1
78767;SHT31;68092;51.982;5.680;2023-02-28T02:50:48;6.2;54.5
78767;SHT31;68092;51.982;5.680;2023-02-28T02:53:23;6.2;54.2
78767;SHT31;68092;51.982;5.680;2023-02-28T02:55:54;6.2;54.5
78767;SHT31;68092;51.982;5.680;2023-02-28T02:58:28;6.2;54.2
78767;SHT31;68092;51.982;5.680;2023-02-28T03:01:02;6.2;53.9
78767;SHT31;68092;51.982;5.680;2023-02-28T03:03:36;6.2;54.3
78767;SHT31;68092;51.982;5.680;2023-02-28T03:06:09;6.2;54.2
78767;SHT31;68092;51.982;5.680;2023-02-28T03:08:39;6.2;54.4
78767;SHT31;68092;51.982;5.680;2023-02-28T03:11:13;6.3;54.0
78767;SHT31;68092;51.982;5.680;2023-02-28T03:14:00;6.3;54.0
78767;SHT31;68092;51.982;5.680;2023-02-28T03:16:58;6.3;53.9
78767;SHT31;68092;51.982;5.680;2023-02-28T03:20:35;6.3;53.7
78767;SHT31;68092;51.982;5.680;2023-02-28T03:23:29;6.3;53.8
78767;SHT31;68092;51.982;5.680;2023-02-28T03:26:11;6.3;54.0
78767;SHT31;68092;51.982;5.680;2023-02-28T03:28:51;6.3;54.2
78767;SHT31;68092;51.982;5.680;2023-02-28T03:31:27;6.3;54.1
78767;SHT31;68092;51.982;5.680;2023-02-28T03:34:05;6.4;53.6
78767;SHT31;68092;51.982;5.680;2023-02-28T03:36:41;6.4;53.7
78767;SHT31;68092;51.982;5.680;2023-02-28T03:39:17;6.4;53.9
78767;SHT31;68092;51.982;5.680;2023-02-28T03:41:52;6.4;53.9
78767;SHT31;68092;51.982;5.680;2023-02-28T03:44:32;6.4;53.7
78767;SHT31;68092;51.982;5.680;2023-02-28T03:47:06;6.4;53.7
78767;SHT31;68092;51.982;5.680;2023-02-28T03:49:40;6.4;53.7
78767;SHT31;68092;51.982;5.680;2023-02-28T03:52:16;6.4;53.3
78767;SHT31;68092;51.982;5.680;2023-02-28T03:54:52;6.4;53.1
78767;SHT31;68092;51.982;5.680;2023-02-28T03:57:30;6.5;52.3
78767;SHT31;68092;51.982;5.680;2023-02-28T04:00:06;6.5;52.5
78767;SHT31;68092;51.982;5.680;2023-02-28T04:02:38;6.5;51.7
78767;SHT31;68092;51.982;5.680;2023-02-28T04:05:09;6.5;51.1
78767;SHT31;68092;51.982;5.680;2023-02-28T04:07:39;6.5;50.6
78767;SHT31;68092;51.982;5.680;2023-02-28T04:10:09;6.4;51.0
78767;SHT31;68092;51.982;5.680;2023-02-28T04:12:39;6.4;51.1
78767;SHT31;68092;51.982;5.680;2023-02-28T04:15:10;6.4;50.5
78767;SHT31;68092;51.982;5.680;2023-02-28T04:17:40;6.4;51.0
78767;SHT31;68092;51.982;5.680;2023-02-28T04:20:11;6.4;51.2
78767;SHT31;68092;51.982;5.680;2023-02-28T04:22:41;6.4;51.1
78767;SHT31;68092;51.982;5.680;2023-02-28T04:25:10;6.4;51.5
78767;SHT31;68092;51.982;5.680;2023-02-28T04:27:40;6.4;51.4
78767;SHT31;68092;51.982;5.680;2023-02-28T04:30:13;6.4;51.6
78767;SHT31;68092;51.982;5.680;2023-02-28T04:32:43;6.4;51.4
78767;SHT31;68092;51.982;5.680;2023-02-28T04:35:12;6.4;52.0
78767;SHT31;68092;51.982;5.680;2023-02-28T04:37:43;6.4;51.9
78767;SHT31;68092;51.982;5.680;2023-02-28T04:40:18;6.4;51.3
78767;SHT31;68092;51.982;5.680;2023-02-28T04:42:48;6.4;52.1
78767;SHT31;68092;51.982;5.680;2023-02-28T04:45:19;6.4;53.0
78767;SHT31;68092;51.982;5.680;2023-02-28T04:47:49;6.3;52.4
78767;SHT31;68092;51.982;5.680;2023-02-28T04:50:18;6.3;52.8
78767;SHT31;68092;51.982;5.680;2023-02-28T04:52:48;6.3;52.7
78767;SHT31;68092;51.982;5.680;2023-02-28T04:55:18;6.3;53.1
78767;SHT31;68092;51.982;5.680;2023-02-28T04:57:47;6.3;53.4
78767;SHT31;68092;51.982;5.680;2023-02-28T05:00:18;6.3;52.2
78767;SHT31;68092;51.982;5.680;2023-02-28T05:02:48;6.3;52.4
78767;SHT31;68092;51.982;5.680;2023-02-28T05:05:18;6.3;52.8
78767;SHT31;68092;51.982;5.680;2023-02-28T05:07:47;6.3;52.8
78767;SHT31;68092;51.982;5.680;2023-02-28T05:10:20;6.3;51.5
78767;SHT31;68092;51.982;5.680;2023-02-28T05:12:50;6.2;52.6
78767;SHT31;68092;51.982;5.680;2023-02-28T05:15:19;6.2;52.8
78767;SHT31;68092;51.982;5.680;2023-02-28T05:17:49;6.2;52.7
78767;SHT31;68092;51.982;5.680;2023-02-28T05:20:20;6.2;51.3
78767;SHT31;68092;51.982;5.680;2023-02-28T05:22:50;6.2;52.1
78767;SHT31;68092;51.982;5.680;2023-02-28T05:25:21;6.2;52.2
78767;SHT31;68092;51.982;5.680;2023-02-28T05:27:53;6.2;52.6
78767;SHT31;68092;51.982;5.680;2023-02-28T05:30:22;6.2;53.3
78767;SHT31;68092;51.982;5.680;2023-02-28T05:32:52;6.2;53.1
78767;SHT31;68092;51.982;5.680;2023-02-28T05:35:21;6.2;52.3
78767;SHT31;68092;51.982;5.680;2023-02-28T05:37:53;6.2;51.7
78767;SHT31;68092;51.982;5.680;2023-02-28T05:40:24;6.2;52.5
78767;SHT31;68092;51.982;5.680;2023-02-28T05:42:54;6.1;53.3
78767;SHT31;68092;51.982;5.680;2023-02-28T05:45:23;6.1;53.1
78767;SHT31;68092;51.982;5.680;2023-02-28T05:47:55;6.1;53.2
78767;SHT31;68092;51.982;5.680;2023-02-28T05:50:24;6.1;53.5
78767;SHT31;68092;51.982;5.680;2023-02-28T05:52:54;6.1;53.3
78767;SHT31;68092;51.982;5.680;2023-02-28T05:55:24;6.1;54.1
78767;SHT31;68092;51.982;5.680;2023-02-28T05:57:55;6.2;54.5
78767;SHT31;68092;51.982;5.680;2023-02-28T06:00:26;6.2;52.6
78767;SHT31;68092;51.982;5.680;2023-02-28T06:02:55;6.2;52.3
78767;SHT31;68092;51.982;5.680;2023-02-28T06:05:32;6.2;52.8
78767;SHT31;68092;51.982;5.680;2023-02-28T06:08:02;6.2;53.5
78767;SHT31;68092;51.982;5.680;2023-02-28T06:10:33;6.2;54.0
78767;SHT31;68092;51.982;5.680;2023-02-28T06:13:05;6.2;53.7
78767;SHT31;68092;51.982;5.680;2023-02-28T06:15:35;6.2;54.1
78767;SHT31;68092;51.982;5.680;2023-02-28T06:18:04;6.2;53.5
78767;SHT31;68092;51.982;5.680;2023-02-28T06:20:34;6.2;52.6
78767;SHT31;68092;51.982;5.680;2023-02-28T06:23:04;6.2;53.6
78767;SHT31;68092;51.982;5.680;2023-02-28T06:25:35;6.2;53.5
78767;SHT31;68092;51.982;5.680;2023-02-28T06:28:05;6.2;53.6
78767;SHT31;68092;51.982;5.680;2023-02-28T06:30:36;6.2;53.4
78767;SHT31;68092;51.982;5.680;2023-02-28T06:33:06;6.2;53.4
78767;SHT31;68092;51.982;5.680;2023-02-28T06:35:38;6.2;53.8
78767;SHT31;68092;51.982;5.680;2023-02-28T06:38:07;6.2;53.6
78767;SHT31;68092;51.982;5.680;2023-02-28T06:40:38;6.2;52.2
78767;SHT31;68092;51.982;5.680;2023-02-28T06:43:08;6.2;52.9
78767;SHT31;68092;51.982;5.680;2023-02-28T06:45:43;6.2;53.5
78767;SHT31;68092;51.982;5.680;2023-02-28T06:48:13;6.2;53.0
78767;SHT31;68092;51.982;5.680;2023-02-28T06:50:44;6.2;53.7
78767;SHT31;68092;51.982;5.680;2023-02-28T06:53:14;6.2;53.6
78767;SHT31;68092;51.982;5.680;2023-02-28T06:55:45;6.2;53.7
78767;SHT31;68092;51.982;5.680;2023-02-28T06:58:15;6.2;53.6
78767;SHT31;68092;51.982;5.680;2023-02-28T07:00:50;6.2;53.5
78767;SHT31;68092;51.982;5.680;2023-02-28T07:03:20;6.2;53.6
78767;SHT31;68092;51.982;5.680;2023-02-28T07:05:51;6.2;54.0
78767;SHT31;68092;51.982;5.680;2023-02-28T07:08:20;6.2;53.5
78767;SHT31;68092;51.982;5.680;2023-02-28T07:10:53;6.2;53.5
78767;SHT31;68092;51.982;5.680;2023-02-28T07:13:25;6.2;53.8
78767;SHT31;68092;51.982;5.680;2023-02-28T07:15:56;6.2;53.9
78767;SHT31;68092;51.982;5.680;2023-02-28T07:18:27;6.2;54.3
78767;SHT31;68092;51.982;5.680;2023-02-28T07:21:01;6.2;53.6
78767;SHT31;68092;51.982;5.680;2023-02-28T07:23:31;6.2;53.6
78767;SHT31;68092;51.982;5.680;2023-02-28T07:26:03;6.3;53.6
78767;SHT31;68092;51.982;5.680;2023-02-28T07:28:33;6.3;53.5
78767;SHT31;68092;51.982;5.680;2023-02-28T07:31:07;6.3;53.6
78767;SHT31;68092;51.982;5.680;2023-02-28T07:33:37;6.3;52.8
78767;SHT31;68092;51.982;5.680;2023-02-28T07:36:09;6.3;53.5
78767;SHT31;68092;51.982;5.680;2023-02-28T07:38:44;6.3;53.0
78767;SHT31;68092;51.982;5.680;2023-02-28T07:41:17;6.4;53.1
78767;SHT31;68092;51.982;5.680;2023-02-28T07:43:47;6.4;52.6
78767;SHT31;68092;51.982;5.680;2023-02-28T07:46:17;6.4;52.9
78767;SHT31;68092;51.982;5.680;2023-02-28T07:48:48;6.5;51.7
78767;SHT31;68092;51.982;5.680;2023-02-28T07:51:19;6.5;52.1
78767;SHT31;68092;51.982;5.680;2023-02-28T07:53:49;6.5;51.6
78767;SHT31;68092;51.982;5.680;2023-02-28T07:56:18;6.6;51.4
78767;SHT31;68092;51.982;5.680;2023-02-28T07:58:48;6.6;51.1
78767;SHT31;68092;51.982;5.680;2023-02-28T08:01:17;6.6;51.7
78767;SHT31;68092;51.982;5.680;2023-02-28T08:03:49;6.7;51.0
78767;SHT31;68092;51.982;5.680;2023-02-28T08:06:22;6.7;50.8
78767;SHT31;68092;51.982;5.680;2023-02-28T08:08:53;6.8;49.7
78767;SHT31;68092;51.982;5.680;2023-02-28T08:11:23;6.8;47.4
78767;SHT31;68092;51.982;5.680;2023-02-28T08:13:56;6.9;46.2
78767;SHT31;68092;51.982;5.680;2023-02-28T08:16:28;7.0;43.6
78767;SHT31;68092;51.982;5.680;2023-02-28T08:18:58;7.0;46.2
78767;SHT31;68092;51.982;5.680;2023-02-28T08:21:27;7.1;45.5
78767;SHT31;68092;51.982;5.680;2023-02-28T08:23:57;7.2;43.3
78767;SHT31;68092;51.982;5.680;2023-02-28T08:26:28;7.3;42.2
78767;SHT31;68092;51.982;5.680;2023-02-28T08:28:58;7.4;43.3
78767;SHT31;68092;51.982;5.680;2023-02-28T08:31:28;7.6;41.8
78767;SHT31;68092;51.982;5.680;2023-02-28T08:33:57;7.7;41.2
78767;SHT31;68092;51.982;5.680;2023-02-28T08:36:27;7.8;42.0
78767;SHT31;68092;51.982;5.680;2023-02-28T08:38:58;7.9;42.0
78767;SHT31;68092;51.982;5.680;2023-02-28T08:41:29;8.0;40.8
78767;SHT31;68092;51.982;5.680;2023-02-28T08:43:59;8.1;43.1
78767;SHT31;68092;51.982;5.680;2023-02-28T08:46:29;8.2;42.3
78767;SHT31;68092;51.982;5.680;2023-02-28T08:48:58;8.3;40.2
78767;SHT31;68092;51.982;5.680;2023-02-28T08:51:29;8.5;41.1
78767;SHT31;68092;51.982;5.680;2023-02-28T08:54:00;8.7;41.5
78767;SHT31;68092;51.982;5.680;2023-02-28T08:56:32;8.8;38.7
78767;SHT31;68092;51.982;5.680;2023-02-28T08:59:01;9.0;38.7
78767;SHT31;68092;51.982;5.680;2023-02-28T09:01:31;9.1;40.3
78767;SHT31;68092;51.982;5.680;2023-02-28T09:04:00;9.3;39.4
78767;SHT31;68092;51.982;5.680;2023-02-28T09:06:31;9.5;37.6
78767;SHT31;68092;51.982;5.680;2023-02-28T09:09:03;9.6;38.0
78767;SHT31;68092;51.982;5.680;2023-02-28T09:11:39;9.7;37.9
78767;SHT31;68092;51.982;5.680;2023-02-28T09:14:09;9.9;37.7
78767;SHT31;68092;51.982;5.680;2023-02-28T09:16:38;10.0;35.5
78767;SHT31;68092;51.982;5.680;2023-02-28T09:19:12;10.1;32.6
78767;SHT31;68092;51.982;5.680;2023-02-28T09:21:42;10.2;34.3
78767;SHT31;68092;51.982;5.680;2023-02-28T09:24:14;10.2;33.8
78767;SHT31;68092;51.982;5.680;2023-02-28T09:26:44;10.3;32.2
78767;SHT31;68092;51.982;5.680;2023-02-28T09:29:14;10.4;32.7
78767;SHT31;68092;51.982;5.680;2023-02-28T09:31:44;10.4;34.4
78767;SHT31;68092;51.982;5.680;2023-02-28T09:34:14;10.5;34.2
78767;SHT31;68092;51.982;5.680;2023-02-28T09:36:47;10.6;33.9
78767;SHT31;68092;51.982;5.680;2023-02-28T09:39:18;10.8;30.8
78767;SHT31;68092;51.982;5.680;2023-02-28T09:41:51;10.9;32.9
78767;SHT31;68092;51.982;5.680;2023-02-28T09:44:26;11.0;32.2
78767;SHT31;68092;51.982;5.680;2023-02-28T09:47:05;11.1;32.0
78767;SHT31;68092;51.982;5.680;2023-02-28T09:49:42;11.3;33.6
78767;SHT31;68092;51.982;5.680;2023-02-28T09:52:18;11.4;31.6
78767;SHT31;68092;51.982;5.680;2023-02-28T09:54:51;11.6;33.2
78767;SHT31;68092;51.982;5.680;2023-02-28T09:57:32;11.8;31.2
78767;SHT31;68092;51.982;5.680;2023-02-28T10:00:10;12.1;29.5
78767;SHT31;68092;51.982;5.680;2023-02-28T10:03:06;12.3;29.7
78767;SHT31;68092;51.982;5.680;2023-02-28T10:05:47;12.4;30.1
78767;SHT31;68092;51.982;5.680;2023-02-28T10:08:23;12.6;30.3
78767;SHT31;68092;51.982;5.680;2023-02-28T10:10:57;12.8;30.8
78767;SHT31;68092;51.982;5.680;2023-02-28T10:13:36;13.0;30.3
78767;SHT31;68092;51.982;5.680;2023-02-28T10:16:13;13.2;27.9
78767;SHT31;68092;51.982;5.680;2023-02-28T10:18:48;13.3;29.9
78767;SHT31;68092;51.982;5.680;2023-02-28T10:21:30;13.5;30.6
78767;SHT31;68092;51.982;5.680;2023-02-28T10:24:07;13.7;28.4
78767;SHT31;68092;51.982;5.680;2023-02-28T10:26:41;13.9;29.1
78767;SHT31;68092;51.982;5.680;2023-02-28T10:29:13;14.2;29.5
78767;SHT31;68092;51.982;5.680;2023-02-28T10:31:44;14.4;28.8
78767;SHT31;68092;51.982;5.680;2023-02-28T10:34:14;14.6;27.8
78767;SHT31;68092;51.982;5.680;2023-02-28T10:36:44;14.8;27.8
78767;SHT31;68092;51.982;5.680;2023-02-28T10:39:37;14.9;28.1
78767;SHT31;68092;51.982;5.680;2023-02-28T10:42:23;15.2;27.8
78767;SHT31;68092;51.982;5.680;2023-02-28T10:45:34;15.4;27.6
78767;SHT31;68092;51.982;5.680;2023-02-28T10:48:31;15.6;27.4
78767;SHT31;68092;51.982;5.680;2023-02-28T10:51:08;15.9;26.9
78767;SHT31;68092;51.982;5.680;2023-02-28T10:53:48;16.0;27.4
78767;SHT31;68092;51.982;5.680;2023-02-28T10:56:20;16.2;25.8
78767;SHT31;68092;51.982;5.680;2023-02-28T10:58:54;16.3;26.5
78767;SHT31;68092;51.982;5.680;2023-02-28T11:01:39;16.5;25.5
78767;SHT31;68092;51.982;5.680;2023-02-28T11:04:36;16.6;23.4
78767;SHT31;68092;51.982;5.680;2023-02-28T11:07:21;16.8;25.6
78767;SHT31;68092;51.982;5.680;2023-02-28T11:09:53;17.0;26.1
78767;SHT31;68092;51.982;5.680;2023-02-28T11:12:28;17.1;25.5
78767;SHT31;68092;51.982;5.680;2023-02-28T11:15:03;17.3;25.3
78767;SHT31;68092;51.982;5.680;2023-02-28T11:17:34;17.5;25.2
78767;SHT31;68092;51.982;5.680;2023-02-28T11:20:14;17.7;23.7
78767;SHT31;68092;51.982;5.680;2023-02-28T11:22:46;17.9;24.2
78767;SHT31;68092;51.982;5.680;2023-02-28T11:25:26;17.9;25.0
78767;SHT31;68092;51.982;5.680;2023-02-28T11:28:01;18.1;24.0
78767;SHT31;68092;51.982;5.680;2023-02-28T11:30:39;18.2;24.0
78767;SHT31;68092;51.982;5.680;2023-02-28T11:33:32;18.3;25.0
78767;SHT31;68092;51.982;5.680;2023-02-28T11:36:12;18.4;26.2
78767;SHT31;68092;51.982;5.680;2023-02-28T11:38:43;18.5;25.6
78767;SHT31;68092;51.982;5.680;2023-02-28T11:41:25;18.6;24.5
78767;SHT31;68092;51.982;5.680;2023-02-28T11:44:04;18.7;23.6
78767;SHT31;68092;51.982;5.680;2023-02-28T11:46:42;18.8;24.4
78767;SHT31;68092;51.982;5.680;2023-02-28T11:49:59;18.9;23.5
78767;SHT31;68092;51.982;5.680;2023-02-28T11:52:37;19.0;24.8
78767;SHT31;68092;51.982;5.680;2023-02-28T11:55:17;19.1;22.3
78767;SHT31;68092;51.982;5.680;2023-02-28T11:58:44;19.1;22.3
78767;SHT31;68092;51.982;5.680;2023-02-28T12:01:22;19.2;21.7
78767;SHT31;68092;51.982;5.680;2023-02-28T12:04:21;19.2;23.2
78767;SHT31;68092;51.982;5.680;2023-02-28T12:06:59;19.2;22.3
78767;SHT31;68092;51.982;5.680;2023-02-28T12:09:41;19.3;22.8
78767;SHT31;68092;51.982;5.680;2023-02-28T12:12:32;19.3;23.0
78767;SHT31;68092;51.982;5.680;2023-02-28T12:15:16;19.3;22.4
78767;SHT31;68092;51.982;5.680;2023-02-28T12:17:54;19.4;21.9
78767;SHT31;68092;51.982;5.680;2023-02-28T12:20:44;19.4;23.2
78767;SHT31;68092;51.982;5.680;2023-02-28T12:23:41;19.5;22.8
78767;SHT31;68092;51.982;5.680;2023-02-28T12:26:22;19.6;22.1
78767;SHT31;68092;51.982;5.680;2023-02-28T12:29:01;19.6;21.7
78767;SHT31;68092;51.982;5.680;2023-02-28T12:31:36;19.7;21.7
78767;SHT31;68092;51.982;5.680;2023-02-28T12:34:16;19.8;21.1
78767;SHT31;68092;51.982;5.680;2023-02-28T12:36:50;19.8;21.8
78767;SHT31;68092;51.982;5.680;2023-02-28T12:39:25;19.8;22.0
78767;SHT31;68092;51.982;5.680;2023-02-28T12:42:00;19.9;22.0
78767;SHT31;68092;51.982;5.680;2023-02-28T12:44:35;19.9;22.3
78767;SHT31;68092;51.982;5.680;2023-02-28T12:47:16;20.0;20.9
78767;SHT31;68092;51.982;5.680;2023-02-28T12:49:49;20.1;21.3
78767;SHT31;68092;51.982;5.680;2023-02-28T12:52:25;20.1;21.4
78767;SHT31;68092;51.982;5.680;2023-02-28T12:55:03;20.2;21.0
78767;SHT31;68092;51.982;5.680;2023-02-28T12:57:45;20.3;21.4
78767;SHT31;68092;51.982;5.680;2023-02-28T13:00:22;20.4;19.9
78767;SHT31;68092;51.982;5.680;2023-02-28T13:07:13;20.5;20.8
78767;SHT31;68092;51.982;5.680;2023-02-28T13:09:55;20.6;20.0
78767;SHT31;68092;51.982;5.680;2023-02-28T13:12:26;20.7;21.0
78767;SHT31;68092;51.982;5.680;2023-02-28T13:15:05;20.7;20.8
78767;SHT31;68092;51.982;5.680;2023-02-28T13:17:41;20.8;18.2
78767;SHT31;68092;51.982;5.680;2023-02-28T13:20:18;20.8;19.8
78767;SHT31;68092;51.982;5.680;2023-02-28T13:22:49;20.8;20.3
78767;SHT31;68092;51.982;5.680;2023-02-28T13:27:40;20.9;19.4
78767;SHT31;68092;51.982;5.680;2023-02-28T13:33:25;21.0;19.7
78767;SHT31;68092;51.982;5.680;2023-02-28T13:36:07;21.1;18.9
78767;SHT31;68092;51.982;5.680;2023-02-28T13:38:40;21.1;19.0
78767;SHT31;68092;51.982;5.680;2023-02-28T13:41:45;21.2;19.9
78767;SHT31;68092;51.982;5.680;2023-02-28T13:44:17;21.2;19.8
78767;SHT31;68092;51.982;5.680;2023-02-28T13:47:27;21.3;20.0
78767;SHT31;68092;51.982;5.680;2023-02-28T13:50:27;21.4;19.5
78767;SHT31;68092;51.982;5.680;2023-02-28T13:53:19;21.4;18.4
78767;SHT31;68092;51.982;5.680;2023-02-28T13:56:00;21.5;19.2
78767;SHT31;68092;51.982;5.680;2023-02-28T13:58:53;21.5;18.4
78767;SHT31;68092;51.982;5.680;2023-02-28T14:02:06;21.6;19.3
78767;SHT31;68092;51.982;5.680;2023-02-28T14:05:00;21.7;18.9
78767;SHT31;68092;51.982;5.680;2023-02-28T14:07:38;21.7;19.8
78767;SHT31;68092;51.982;5.680;2023-02-28T14:10:25;21.7;18.6
78767;SHT31;68092;51.982;5.680;2023-02-28T14:12:58;21.8;18.0
78767;SHT31;68092;51.982;5.680;2023-02-28T14:16:00;21.8;18.7
78767;SHT31;68092;51.982;5.680;2023-02-28T14:18:33;21.8;18.6
78767;SHT31;68092;51.982;5.680;2023-02-28T14:21:16;21.9;18.7
78767;SHT31;68092;51.982;5.680;2023-02-28T14:24:28;21.9;19.0
78767;SHT31;68092;51.982;5.680;2023-02-28T14:27:11;21.9;18.9
78767;SHT31;68092;51.982;5.680;2023-02-28T14:30:02;21.9;19.0
78767;SHT31;68092;51.982;5.680;2023-02-28T14:32:44;21.9;19.9
78767;SHT31;68092;51.982;5.680;2023-02-28T14:35:39;22.0;18.7
78767;SHT31;68092;51.982;5.680;2023-02-28T14:38:17;22.0;18.7
78767;SHT31;68092;51.982;5.680;2023-02-28T14:40:51;22.0;18.8
78767;SHT31;68092;51.982;5.680;2023-02-28T14:43:24;22.0;17.6
78767;SHT31;68092;51.982;5.680;2023-02-28T14:45:58;21.9;18.0
78767;SHT31;68092;51.982;5.680;2023-02-28T14:48:28;21.9;17.6
78767;SHT31;68092;51.982;5.680;2023-02-28T14:51:03;21.8;17.3
78767;SHT31;68092;51.982;5.680;2023-02-28T14:53:36;21.8;17.3
78767;SHT31;68092;51.982;5.680;2023-02-28T14:56:19;21.7;18.0
78767;SHT31;68092;51.982;5.680;2023-02-28T14:58:54;21.7;17.4
78767;SHT31;68092;51.982;5.680;2023-02-28T15:01:25;21.7;18.0
78767;SHT31;68092;51.982;5.680;2023-02-28T15:04:01;21.6;19.1
78767;SHT31;68092;51.982;5.680;2023-02-28T15:06:33;21.6;18.0
78767;SHT31;68092;51.982;5.680;2023-02-28T15:09:14;21.5;18.1
78767;SHT31;68092;51.982;5.680;2023-02-28T15:11:47;21.5;17.9
78767;SHT31;68092;51.982;5.680;2023-02-28T15:14:21;21.4;18.2
78767;SHT31;68092;51.982;5.680;2023-02-28T15:16:56;21.4;17.9
78767;SHT31;68092;51.982;5.680;2023-02-28T15:19:30;21.3;17.3
78767;SHT31;68092;51.982;5.680;2023-02-28T15:22:04;21.2;18.2
78767;SHT31;68092;51.982;5.680;2023-02-28T15:24:40;21.2;17.9
78767;SHT31;68092;51.982;5.680;2023-02-28T15:27:16;21.1;18.4
78767;SHT31;68092;51.982;5.680;2023-02-28T15:29:53;21.0;18.6
78767;SHT31;68092;51.982;5.680;2023-02-28T15:32:27;21.0;18.6
78767;SHT31;68092;51.982;5.680;2023-02-28T15:35:19;20.9;18.5
78767;SHT31;68092;51.982;5.680;2023-02-28T15:37:56;20.8;18.7
78767;SHT31;68092;51.982;5.680;2023-02-28T15:40:29;20.7;19.1
78767;SHT31;68092;51.982;5.680;2023-02-28T15:43:04;20.7;18.9
78767;SHT31;68092;51.982;5.680;2023-02-28T15:45:38;20.6;18.9
78767;SHT31;68092;51.982;5.680;2023-02-28T15:48:16;20.5;19.3
78767;SHT31;68092;51.982;5.680;2023-02-28T15:50:49;20.4;18.4
78767;SHT31;68092;51.982;5.680;2023-02-28T15:53:23;20.3;18.6
78767;SHT31;68092;51.982;5.680;2023-02-28T15:55:57;20.2;18.7
78767;SHT31;68092;51.982;5.680;2023-02-28T15:58:29;20.0;18.2
78767;SHT31;68092;51.982;5.680;2023-02-28T16:01:18;19.9;19.3
78767;SHT31;68092;51.982;5.680;2023-02-28T16:03:53;19.7;19.6
78767;SHT31;68092;51.982;5.680;2023-02-28T16:06:39;19.5;20.1
78767;SHT31;68092;51.982;5.680;2023-02-28T16:09:13;19.2;19.9
78767;SHT31;68092;51.982;5.680;2023-02-28T16:11:46;19.0;19.7
78767;SHT31;68092;51.982;5.680;2023-02-28T16:14:20;18.8;20.3
78767;SHT31;68092;51.982;5.680;2023-02-28T16:16:52;18.6;20.7
78767;SHT31;68092;51.982;5.680;2023-02-28T16:19:23;18.4;20.3
78767;SHT31;68092;51.982;5.680;2023-02-28T16:21:55;18.2;21.3
78767;SHT31;68092;51.982;5.680;2023-02-28T16:24:24;18.0;21.6
78767;SHT31;68092;51.982;5.680;2023-02-28T16:26:57;17.8;21.2
78767;SHT31;68092;51.982;5.680;2023-02-28T16:29:31;17.6;21.8
78767;SHT31;68092;51.982;5.680;2023-02-28T16:32:04;17.4;21.7
78767;SHT31;68092;51.982;5.680;2023-02-28T16:34:34;17.2;21.8
78767;SHT31;68092;51.982;5.680;2023-02-28T16:37:07;17.1;22.2
78767;SHT31;68092;51.982;5.680;2023-02-28T16:39:39;16.9;23.4
78767;SHT31;68092;51.982;5.680;2023-02-28T16:42:13;16.8;21.8
78767;SHT31;68092;51.982;5.680;2023-02-28T16:44:43;16.6;22.8
78767;SHT31;68092;51.982;5.680;2023-02-28T16:47:13;16.5;22.9
78767;SHT31;68092;51.982;5.680;2023-02-28T16:49:43;16.3;23.9
78767;SHT31;68092;51.982;5.680;2023-02-28T16:52:15;16.1;23.4
78767;SHT31;68092;51.982;5.680;2023-02-28T16:54:44;15.9;23.0
78767;SHT31;68092;51.982;5.680;2023-02-28T16:57:21;15.7;23.6
78767;SHT31;68092;51.982;5.680;2023-02-28T16:59:51;15.5;23.9
78767;SHT31;68092;51.982;5.680;2023-02-28T17:02:20;15.2;23.4
78767;SHT31;68092;51.982;5.680;2023-02-28T17:04:50;15.0;23.4
78767;SHT31;68092;51.982;5.680;2023-02-28T17:07:19;14.8;23.6
78767;SHT31;68092;51.982;5.680;2023-02-28T17:09:49;14.6;24.4
78767;SHT31;68092;51.982;5.680;2023-02-28T17:12:18;14.4;25.6
78767;SHT31;68092;51.982;5.680;2023-02-28T17:14:51;14.2;25.4
78767;SHT31;68092;51.982;5.680;2023-02-28T17:17:21;14.0;25.3
78767;SHT31;68092;51.982;5.680;2023-02-28T17:19:51;13.8;25.3